Sider Lijun C — 2CTU4 — position and weather

sailwx.info

Track history (hours):
 
Tides and Currents Weather Stations Pressure Air Temp Water Temp Dewpoint Dewpoint Depression Visibility Wind Speed Wind Dir Waves Ship Positions

Sider Lijun C

Last reported at 2017-Sep-20 13:04 UTC. Time now 2017-Sep-23 16:40 UTC.
Position N 43°46' W 005°54'.

Length 108 m; draft 7.3 m.

Type: Cargo ship. MMSI: 235075699.

Date/timePositionNaut miles runAvg speedWind from/ knotsBaromVisibWave heightAir tempDewpointWater temp
2017-Sep-20 13:04N 43°46' W 005°54'1 8.8
2017-Sep-20 12:57N 43°46' W 005°52'4 9.2
2017-Sep-20 12:30N 43°45' W 005°46'4 8.5
2017-Sep-20 12:00N 43°45' W 005°40'5 8.9
2017-Sep-20 11:24N 43°44' W 005°33'4 8.9
2017-Sep-20 10:59N 43°44' W 005°28'4 8.8
2017-Sep-20 10:30N 43°44' W 005°22'4 8.6
2017-Sep-20 10:00N 43°43' W 005°16'4 8.6
2017-Sep-20 09:29N 43°43' W 005°10'4 8.6
2017-Sep-20 09:00N 43°43' W 005°04'4 8.9
2017-Sep-20 08:30N 43°42' W 004°58'59 9.7
2017-Sep-20 02:27N 43°37' W 003°38'410.1
2017-Sep-20 02:00N 43°37' W 003°32'510.0
2017-Sep-20 01:30N 43°37' W 003°25'510.0
2017-Sep-20 01:00N 43°36' W 003°18'5 9.9
2017-Sep-20 00:30N 43°36' W 003°11'5 9.9
2017-Sep-20 00:00N 43°36' W 003°04'510.1
2017-Sep-19 23:31N 43°35' W 002°57'510.0
2017-Sep-19 23:00N 43°35' W 002°50'5 9.8
2017-Sep-19 22:30N 43°35' W 002°43'5 9.7
2017-Sep-19 22:00N 43°34' W 002°37'29 9.8
2017-Sep-19 19:01N 43°33' W 001°56'0 9.8
2017-Sep-19 18:59N 43°33' W 001°56'5 9.9
2017-Sep-19 18:30N 43°33' W 001°50'5 9.8
2017-Sep-19 18:00N 43°33' W 001°43'5 9.6
2017-Sep-19 17:30N 43°32' W 001°36'4 8.8
2017-Sep-19 17:00N 43°32' W 001°30'0 0.2
2017-Sep-19 16:20N 43°32' W 001°30'0 0.0
2017-Sep-19 15:53N 43°32' W 001°30'0 0.0
2017-Sep-19 15:29N 43°32' W 001°30'0 0.0
2017-Sep-19 14:59N 43°32' W 001°30'0 0.0
2017-Sep-19 14:29N 43°32' W 001°30'0 0.0
2017-Sep-19 13:59N 43°32' W 001°30'0 0.0
2017-Sep-19 13:26N 43°32' W 001°30'0 0.0
2017-Sep-19 12:59N 43°32' W 001°30'0 0.0
2017-Sep-19 12:29N 43°32' W 001°30'0 0.0
2017-Sep-19 11:59N 43°32' W 001°30'0 0.0
2017-Sep-19 11:29N 43°32' W 001°30'0 0.0
2017-Sep-19 10:59N 43°32' W 001°30'0 0.0
2017-Sep-19 10:29N 43°32' W 001°30'0 0.0
2017-Sep-19 09:59N 43°32' W 001°30'0 0.0
2017-Sep-19 09:29N 43°32' W 001°30'0 0.0
2017-Sep-19 08:59N 43°32' W 001°30'0 0.0
2017-Sep-19 08:26N 43°32' W 001°30'0 0.0
2017-Sep-19 07:59N 43°32' W 001°30'0 0.0
2017-Sep-19 07:29N 43°32' W 001°30'0 0.0
2017-Sep-19 06:59N 43°32' W 001°30'0 0.0
2017-Sep-19 06:29N 43°32' W 001°30'0 0.0
2017-Sep-19 05:59N 43°32' W 001°30'0 0.0
2017-Sep-19 05:29N 43°32' W 001°30'0 0.0
2017-Sep-19 05:00N 43°32' W 001°30'2 4.3
2017-Sep-19 04:30N 43°32' W 001°33'5 9.9
2017-Sep-19 04:00N 43°33' W 001°40'510.5
2017-Sep-19 03:31N 43°33' W 001°47'510.4
2017-Sep-19 03:00N 43°33' W 001°54'1010.4
2017-Sep-19 02:04N 43°33' W 002°08'1210.2
2017-Sep-19 00:56N 43°34' W 002°23'510.3
2017-Sep-19 00:26N 43°34' W 002°31'410.4
2017-Sep-19 00:01N 43°34' W 002°37'510.7
2017-Sep-18 23:30N 43°35' W 002°44'510.8
2017-Sep-18 23:01N 43°35' W 002°52'510.7
2017-Sep-18 22:31N 43°35' W 002°59'510.3
2017-Sep-18 22:01N 43°36' W 003°06'510.3
2017-Sep-18 21:31N 43°36' W 003°13'510.2
2017-Sep-18 21:01N 43°36' W 003°20'510.4
2017-Sep-18 20:31N 43°36' W 003°27'610.5
2017-Sep-18 19:59N 43°36' W 003°35'6810.6
2017-Sep-18 13:36N 43°35' W 005°09'410.9
2017-Sep-18 13:13N 43°35' W 005°14'511.6
2017-Sep-18 12:46N 43°35' W 005°21'312.4
2017-Sep-18 12:30N 43°35' W 005°26'612.5
2017-Sep-18 12:00N 43°35' W 005°35'5 9.9
2017-Sep-18 11:30N 43°35' W 005°42'0 0.0
2017-Sep-18 11:00N 43°35' W 005°42'0 0.0
2017-Sep-18 10:12N 43°35' W 005°42'0 0.0
2017-Sep-18 10:00N 43°35' W 005°42'0 0.0
2017-Sep-18 09:18N 43°35' W 005°42'0 0.0
2017-Sep-18 08:48N 43°35' W 005°42'0 0.0
2017-Sep-18 08:24N 43°35' W 005°42'0 0.0
2017-Sep-18 07:42N 43°35' W 005°42'0 0.0
2017-Sep-18 07:30N 43°35' W 005°42'0 0.0
2017-Sep-18 07:00N 43°35' W 005°42'0 0.0
2017-Sep-18 06:30N 43°35' W 005°42'0 0.0
2017-Sep-18 06:00N 43°35' W 005°42'0 0.0
2017-Sep-18 05:30N 43°35' W 005°42'0 0.0
2017-Sep-18 05:00N 43°35' W 005°42'0 0.2
2017-Sep-18 04:30N 43°35' W 005°41'2 3.2
2017-Sep-18 04:00N 43°36' W 005°40'4 8.4
2017-Sep-18 03:30N 43°40' W 005°43'4 8.1
2017-Sep-18 03:00N 43°43' W 005°47'7 8.6
2017-Sep-18 02:09N 43°43' W 005°57'1 8.5
2017-Sep-18 01:59N 43°43' W 005°59'4 8.4
2017-Sep-18 01:29N 43°43' W 006°05'4 8.5
2017-Sep-18 00:58N 43°44' W 006°11'  
2017-Sep-14 19:23N 43°47' W 006°17'3 8.2
2017-Sep-14 18:59N 43°47' W 006°12'4 8.0
2017-Sep-14 18:28N 43°47' W 006°06'4 7.8
2017-Sep-14 18:00N 43°46' W 006°01'4 7.9
2017-Sep-14 17:30N 43°46' W 005°56'4 7.9
2017-Sep-14 17:00N 43°46' W 005°50'4 7.6
2017-Sep-14 16:30N 43°46' W 005°45'4 7.9
2017-Sep-14 16:00N 43°45' W 005°40'4 7.7
2017-Sep-14 15:30N 43°44' W 005°34'4 8.0
2017-Sep-14 15:00N 43°44' W 005°29'4 8.1
2017-Sep-14 14:30N 43°44' W 005°23'4 8.0
2017-Sep-14 14:01N 43°44' W 005°18'4 7.7
2017-Sep-14 13:30N 43°43' W 005°13'4 7.4
2017-Sep-14 12:56N 43°43' W 005°07'3 7.7
2017-Sep-14 12:30N 43°43' W 005°02'134 7.7
2017-Sep-13 19:03N 43°33' W 001°58'1 8.9
2017-Sep-13 18:54N 43°33' W 001°56'4 8.8
2017-Sep-13 18:30N 43°33' W 001°51'4 8.4
2017-Sep-13 18:00N 43°33' W 001°45'4 8.5
2017-Sep-13 17:30N 43°33' W 001°40'4 8.4
2017-Sep-13 17:01N 43°32' W 001°34'3 5.7
2017-Sep-13 16:30N 43°32' W 001°30'0 0.0
2017-Sep-13 15:45N 43°32' W 001°30'0 0.0
2017-Sep-13 15:30N 43°32' W 001°30'0 0.0
2017-Sep-13 14:57N 43°32' W 001°30'0 0.0
2017-Sep-13 14:27N 43°32' W 001°30'0 0.0
2017-Sep-13 13:21N 43°32' W 001°30'0 0.0
2017-Sep-13 12:57N 43°32' W 001°30'0 0.0
2017-Sep-13 12:18N 43°32' W 001°30'0 0.0
2017-Sep-13 11:45N 43°32' W 001°30'0 0.0
2017-Sep-13 11:30N 43°32' W 001°30'0 0.0
2017-Sep-13 10:57N 43°32' W 001°30'0 0.0
2017-Sep-13 10:27N 43°32' W 001°30'0 0.0
2017-Sep-13 10:00N 43°32' W 001°30'0 0.0
2017-Sep-13 09:30N 43°32' W 001°30'0 0.0
2017-Sep-13 09:00N 43°32' W 001°30'0 0.0
2017-Sep-13 08:30N 43°32' W 001°30'0 0.0
2017-Sep-13 08:00N 43°32' W 001°30'0 0.0
2017-Sep-13 07:30N 43°32' W 001°30'0 0.0
2017-Sep-13 06:57N 43°32' W 001°30'0 0.0
2017-Sep-13 06:30N 43°32' W 001°30'0 0.0
2017-Sep-13 06:00N 43°32' W 001°30'0 0.0
2017-Sep-13 05:27N 43°32' W 001°30'0 0.0
2017-Sep-13 05:00N 43°32' W 001°30'0 0.0
2017-Sep-13 04:27N 43°32' W 001°30'0 0.0
2017-Sep-13 04:00N 43°32' W 001°30'2 3.8
2017-Sep-13 03:30N 43°32' W 001°33'3 6.0
2017-Sep-13 03:00N 43°33' W 001°37'3 6.0
2017-Sep-13 02:30N 43°33' W 001°41'3 6.0
2017-Sep-13 02:00N 43°33' W 001°45'3 5.9
2017-Sep-13 01:30N 43°33' W 001°49'3 6.0
2017-Sep-13 01:01N 43°32' W 001°53'4 6.0
2017-Sep-13 00:21N 43°32' W 001°59'124 8.2
2017-Sep-12 09:16N 43°42' W 004°49'311.9
2017-Sep-12 09:00N 43°42' W 004°53'5 9.9
2017-Sep-12 08:30N 43°43' W 005°00'510.9
2017-Sep-12 08:00N 43°43' W 005°08'611.8
2017-Sep-12 07:30N 43°44' W 005°16'611.7
2017-Sep-12 07:00N 43°44' W 005°24'612.0
2017-Sep-12 06:30N 43°45' W 005°32'1011.9
2017-Sep-12 05:40N 43°45' W 005°46'212.2
2017-Sep-12 05:29N 43°45' W 005°49'611.7
2017-Sep-12 04:58N 43°46' W 005°57'511.2
2017-Sep-12 04:29N 43°47' W 006°05'511.4
2017-Sep-12 04:00N 43°47' W 006°12'611.1
2017-Sep-12 03:30N 43°47' W 006°20'  
Track history (hours):
 
Tides and Currents Weather Stations Pressure Air Temp Water Temp Dewpoint Dewpoint Depression Visibility Wind Speed Wind Dir Waves Ship Positions

Sider Lijun C

Last reported at 2017-Sep-20 13:04 UTC. Time now 2017-Sep-23 16:40 UTC.
Position N 43°46' W 005°54'.

Length 108 m; draft 7.3 m.

Type: Cargo ship. MMSI: 235075699.

Date/timePositionNaut miles runAvg speedWind from/ knotsBaromVisibWave heightAir tempDewpointWater temp
2017-Sep-20 13:04N 43°46' W 005°54'1 8.8
2017-Sep-20 12:57N 43°46' W 005°52'4 9.2
2017-Sep-20 12:30N 43°45' W 005°46'4 8.5
2017-Sep-20 12:00N 43°45' W 005°40'5 8.9
2017-Sep-20 11:24N 43°44' W 005°33'4 8.9
2017-Sep-20 10:59N 43°44' W 005°28'4 8.8
2017-Sep-20 10:30N 43°44' W 005°22'4 8.6
2017-Sep-20 10:00N 43°43' W 005°16'4 8.6
2017-Sep-20 09:29N 43°43' W 005°10'4 8.6
2017-Sep-20 09:00N 43°43' W 005°04'4 8.9
2017-Sep-20 08:30N 43°42' W 004°58'59 9.7
2017-Sep-20 02:27N 43°37' W 003°38'410.1
2017-Sep-20 02:00N 43°37' W 003°32'510.0
2017-Sep-20 01:30N 43°37' W 003°25'510.0
2017-Sep-20 01:00N 43°36' W 003°18'5 9.9
2017-Sep-20 00:30N 43°36' W 003°11'5 9.9
2017-Sep-20 00:00N 43°36' W 003°04'510.1
2017-Sep-19 23:31N 43°35' W 002°57'510.0
2017-Sep-19 23:00N 43°35' W 002°50'5 9.8
2017-Sep-19 22:30N 43°35' W 002°43'5 9.7
2017-Sep-19 22:00N 43°34' W 002°37'29 9.8
2017-Sep-19 19:01N 43°33' W 001°56'0 9.8
2017-Sep-19 18:59N 43°33' W 001°56'5 9.9
2017-Sep-19 18:30N 43°33' W 001°50'5 9.8
2017-Sep-19 18:00N 43°33' W 001°43'5 9.6
2017-Sep-19 17:30N 43°32' W 001°36'4 8.8
2017-Sep-19 17:00N 43°32' W 001°30'0 0.2
2017-Sep-19 16:20N 43°32' W 001°30'0 0.0
2017-Sep-19 15:53N 43°32' W 001°30'0 0.0
2017-Sep-19 15:29N 43°32' W 001°30'0 0.0
2017-Sep-19 14:59N 43°32' W 001°30'0 0.0
2017-Sep-19 14:29N 43°32' W 001°30'0 0.0
2017-Sep-19 13:59N 43°32' W 001°30'0 0.0
2017-Sep-19 13:26N 43°32' W 001°30'0 0.0
2017-Sep-19 12:59N 43°32' W 001°30'0 0.0
2017-Sep-19 12:29N 43°32' W 001°30'0 0.0
2017-Sep-19 11:59N 43°32' W 001°30'0 0.0
2017-Sep-19 11:29N 43°32' W 001°30'0 0.0
2017-Sep-19 10:59N 43°32' W 001°30'0 0.0
2017-Sep-19 10:29N 43°32' W 001°30'0 0.0
2017-Sep-19 09:59N 43°32' W 001°30'0 0.0
2017-Sep-19 09:29N 43°32' W 001°30'0 0.0
2017-Sep-19 08:59N 43°32' W 001°30'0 0.0
2017-Sep-19 08:26N 43°32' W 001°30'0 0.0
2017-Sep-19 07:59N 43°32' W 001°30'0 0.0
2017-Sep-19 07:29N 43°32' W 001°30'0 0.0
2017-Sep-19 06:59N 43°32' W 001°30'0 0.0
2017-Sep-19 06:29N 43°32' W 001°30'0 0.0
2017-Sep-19 05:59N 43°32' W 001°30'0 0.0
2017-Sep-19 05:29N 43°32' W 001°30'0 0.0
2017-Sep-19 05:00N 43°32' W 001°30'2 4.3
2017-Sep-19 04:30N 43°32' W 001°33'5 9.9
2017-Sep-19 04:00N 43°33' W 001°40'510.5
2017-Sep-19 03:31N 43°33' W 001°47'510.4
2017-Sep-19 03:00N 43°33' W 001°54'1010.4
2017-Sep-19 02:04N 43°33' W 002°08'1210.2
2017-Sep-19 00:56N 43°34' W 002°23'510.3
2017-Sep-19 00:26N 43°34' W 002°31'410.4
2017-Sep-19 00:01N 43°34' W 002°37'510.7
2017-Sep-18 23:30N 43°35' W 002°44'510.8
2017-Sep-18 23:01N 43°35' W 002°52'510.7
2017-Sep-18 22:31N 43°35' W 002°59'510.3
2017-Sep-18 22:01N 43°36' W 003°06'510.3
2017-Sep-18 21:31N 43°36' W 003°13'510.2
2017-Sep-18 21:01N 43°36' W 003°20'510.4
2017-Sep-18 20:31N 43°36' W 003°27'610.5
2017-Sep-18 19:59N 43°36' W 003°35'6810.6
2017-Sep-18 13:36N 43°35' W 005°09'410.9
2017-Sep-18 13:13N 43°35' W 005°14'511.6
2017-Sep-18 12:46N 43°35' W 005°21'312.4
2017-Sep-18 12:30N 43°35' W 005°26'612.5
2017-Sep-18 12:00N 43°35' W 005°35'5 9.9
2017-Sep-18 11:30N 43°35' W 005°42'0 0.0
2017-Sep-18 11:00N 43°35' W 005°42'0 0.0
2017-Sep-18 10:12N 43°35' W 005°42'0 0.0
2017-Sep-18 10:00N 43°35' W 005°42'0 0.0
2017-Sep-18 09:18N 43°35' W 005°42'0 0.0
2017-Sep-18 08:48N 43°35' W 005°42'0 0.0
2017-Sep-18 08:24N 43°35' W 005°42'0 0.0
2017-Sep-18 07:42N 43°35' W 005°42'0 0.0
2017-Sep-18 07:30N 43°35' W 005°42'0 0.0
2017-Sep-18 07:00N 43°35' W 005°42'0 0.0
2017-Sep-18 06:30N 43°35' W 005°42'0 0.0
2017-Sep-18 06:00N 43°35' W 005°42'0 0.0
2017-Sep-18 05:30N 43°35' W 005°42'0 0.0
2017-Sep-18 05:00N 43°35' W 005°42'0 0.2
2017-Sep-18 04:30N 43°35' W 005°41'2 3.2
2017-Sep-18 04:00N 43°36' W 005°40'4 8.4
2017-Sep-18 03:30N 43°40' W 005°43'4 8.1
2017-Sep-18 03:00N 43°43' W 005°47'7 8.6
2017-Sep-18 02:09N 43°43' W 005°57'1 8.5
2017-Sep-18 01:59N 43°43' W 005°59'4 8.4
2017-Sep-18 01:29N 43°43' W 006°05'4 8.5
2017-Sep-18 00:58N 43°44' W 006°11'  
2017-Sep-14 19:23N 43°47' W 006°17'3 8.2
2017-Sep-14 18:59N 43°47' W 006°12'4 8.0
2017-Sep-14 18:28N 43°47' W 006°06'4 7.8
2017-Sep-14 18:00N 43°46' W 006°01'4 7.9
2017-Sep-14 17:30N 43°46' W 005°56'4 7.9
2017-Sep-14 17:00N 43°46' W 005°50'4 7.6
2017-Sep-14 16:30N 43°46' W 005°45'4 7.9
2017-Sep-14 16:00N 43°45' W 005°40'4 7.7
2017-Sep-14 15:30N 43°44' W 005°34'4 8.0
2017-Sep-14 15:00N 43°44' W 005°29'4 8.1
2017-Sep-14 14:30N 43°44' W 005°23'4 8.0
2017-Sep-14 14:01N 43°44' W 005°18'4 7.7
2017-Sep-14 13:30N 43°43' W 005°13'4 7.4
2017-Sep-14 12:56N 43°43' W 005°07'3 7.7
2017-Sep-14 12:30N 43°43' W 005°02'134 7.7
2017-Sep-13 19:03N 43°33' W 001°58'1 8.9
2017-Sep-13 18:54N 43°33' W 001°56'4 8.8
2017-Sep-13 18:30N 43°33' W 001°51'4 8.4
2017-Sep-13 18:00N 43°33' W 001°45'4 8.5
2017-Sep-13 17:30N 43°33' W 001°40'4 8.4
2017-Sep-13 17:01N 43°32' W 001°34'3 5.7
2017-Sep-13 16:30N 43°32' W 001°30'0 0.0
2017-Sep-13 15:45N 43°32' W 001°30'0 0.0
2017-Sep-13 15:30N 43°32' W 001°30'0 0.0
2017-Sep-13 14:57N 43°32' W 001°30'0 0.0
2017-Sep-13 14:27N 43°32' W 001°30'0 0.0
2017-Sep-13 13:21N 43°32' W 001°30'0 0.0
2017-Sep-13 12:57N 43°32' W 001°30'0 0.0
2017-Sep-13 12:18N 43°32' W 001°30'0 0.0
2017-Sep-13 11:45N 43°32' W 001°30'0 0.0
2017-Sep-13 11:30N 43°32' W 001°30'0 0.0
2017-Sep-13 10:57N 43°32' W 001°30'0 0.0
2017-Sep-13 10:27N 43°32' W 001°30'0 0.0
2017-Sep-13 10:00N 43°32' W 001°30'0 0.0
2017-Sep-13 09:30N 43°32' W 001°30'0 0.0
2017-Sep-13 09:00N 43°32' W 001°30'0 0.0
2017-Sep-13 08:30N 43°32' W 001°30'0 0.0
2017-Sep-13 08:00N 43°32' W 001°30'0 0.0
2017-Sep-13 07:30N 43°32' W 001°30'0 0.0
2017-Sep-13 06:57N 43°32' W 001°30'0 0.0
2017-Sep-13 06:30N 43°32' W 001°30'0 0.0
2017-Sep-13 06:00N 43°32' W 001°30'0 0.0
2017-Sep-13 05:27N 43°32' W 001°30'0 0.0
2017-Sep-13 05:00N 43°32' W 001°30'0 0.0
2017-Sep-13 04:27N 43°32' W 001°30'0 0.0
2017-Sep-13 04:00N 43°32' W 001°30'2 3.8
2017-Sep-13 03:30N 43°32' W 001°33'3 6.0
2017-Sep-13 03:00N 43°33' W 001°37'3 6.0
2017-Sep-13 02:30N 43°33' W 001°41'3 6.0
2017-Sep-13 02:00N 43°33' W 001°45'3 5.9
2017-Sep-13 01:30N 43°33' W 001°49'3 6.0
2017-Sep-13 01:01N 43°32' W 001°53'4 6.0
2017-Sep-13 00:21N 43°32' W 001°59'124 8.2
2017-Sep-12 09:16N 43°42' W 004°49'311.9
2017-Sep-12 09:00N 43°42' W 004°53'5 9.9
2017-Sep-12 08:30N 43°43' W 005°00'510.9
2017-Sep-12 08:00N 43°43' W 005°08'611.8
2017-Sep-12 07:30N 43°44' W 005°16'611.7
2017-Sep-12 07:00N 43°44' W 005°24'612.0
2017-Sep-12 06:30N 43°45' W 005°32'1011.9
2017-Sep-12 05:40N 43°45' W 005°46'212.2
2017-Sep-12 05:29N 43°45' W 005°49'611.7
2017-Sep-12 04:58N 43°46' W 005°57'511.2
2017-Sep-12 04:29N 43°47' W 006°05'511.4
2017-Sep-12 04:00N 43°47' W 006°12'611.1
2017-Sep-12 03:30N 43°47' W 006°20'  

Dump ship's entire track history